sensor_id;sensor_type;location;lat;lon;timestamp;pressure;altitude;pressure_sealevel;temperature;humidity
56632;BME280;42503;39.928;-75.152;2023-09-30T00:01:09;101836.91;;;23.92;58.50
56632;BME280;42503;39.928;-75.152;2023-09-30T00:11:15;101840.53;;;23.88;58.52
56632;BME280;42503;39.928;-75.152;2023-09-30T00:21:18;101856.72;;;23.91;58.32
56632;BME280;42503;39.928;-75.152;2023-09-30T00:31:19;101856.72;;;23.91;58.05
56632;BME280;42503;39.928;-75.152;2023-09-30T00:41:21;101867.91;;;23.91;57.91
56632;BME280;42503;39.928;-75.152;2023-09-30T00:51:22;101876.59;;;23.89;57.79
56632;BME280;42503;39.928;-75.152;2023-09-30T01:01:24;101890.84;;;23.88;57.68
56632;BME280;42503;39.928;-75.152;2023-09-30T01:11:25;101885.25;;;23.88;57.48
56632;BME280;42503;39.928;-75.152;2023-09-30T01:21:27;101872.66;;;23.75;57.35
56632;BME280;42503;39.928;-75.152;2023-09-30T01:31:29;101864.00;;;23.71;57.59
56632;BME280;42503;39.928;-75.152;2023-09-30T01:41:31;101896.44;;;23.88;57.45
56632;BME280;42503;39.928;-75.152;2023-09-30T01:51:33;101890.84;;;23.88;57.28
56632;BME280;42503;39.928;-75.152;2023-09-30T02:01:37;101888.06;;;23.88;57.36
56632;BME280;42503;39.928;-75.152;2023-09-30T02:11:41;101873.50;;;23.86;57.54
56632;BME280;42503;39.928;-75.152;2023-09-30T02:21:42;101878.84;;;23.87;57.36
56632;BME280;42503;39.928;-75.152;2023-09-30T02:31:45;101864.00;;;23.81;57.19
56632;BME280;42503;39.928;-75.152;2023-09-30T02:41:46;101866.78;;;23.87;57.32
56632;BME280;42503;39.928;-75.152;2023-09-30T02:51:50;101852.28;;;23.84;57.15
56632;BME280;42503;39.928;-75.152;2023-09-30T03:01:52;101855.59;;;23.87;57.31
56632;BME280;42503;39.928;-75.152;2023-09-30T03:11:53;101846.69;;;23.79;57.31
56632;BME280;42503;39.928;-75.152;2023-09-30T03:21:57;101865.13;;;23.86;57.09
56632;BME280;42503;39.928;-75.152;2023-09-30T03:31:58;101848.34;;;23.86;57.57
56632;BME280;42503;39.928;-75.152;2023-09-30T03:41:59;101843.59;;;23.86;57.40
56632;BME280;42503;39.928;-75.152;2023-09-30T03:52:01;101844.44;;;23.87;57.39
56632;BME280;42503;39.928;-75.152;2023-09-30T04:02:03;101844.44;;;23.87;57.46
56632;BME280;42503;39.928;-75.152;2023-09-30T04:12:04;101845.56;;;23.80;57.50
56632;BME280;42503;39.928;-75.152;2023-09-30T12:34:42;102037.38;;;22.32;62.19
56632;BME280;42503;39.928;-75.152;2023-09-30T12:44:45;102053.97;;;23.14;59.24
56632;BME280;42503;39.928;-75.152;2023-09-30T12:54:47;102054.16;;;23.44;58.10
56632;BME280;42503;39.928;-75.152;2023-09-30T13:04:49;102042.47;;;23.57;57.84
56632;BME280;42503;39.928;-75.152;2023-09-30T13:14:53;102038.38;;;23.65;57.00
56632;BME280;42503;39.928;-75.152;2023-09-30T13:24:57;102056.28;;;23.69;56.85
56632;BME280;42503;39.928;-75.152;2023-09-30T13:34:58;102053.50;;;23.74;56.59
56632;BME280;42503;39.928;-75.152;2023-09-30T13:45:00;102053.78;;;23.78;56.31
56632;BME280;42503;39.928;-75.152;2023-09-30T13:55:02;102061.88;;;23.79;56.16
56632;BME280;42503;39.928;-75.152;2023-09-30T14:05:04;102079.22;;;23.81;56.14
56632;BME280;42503;39.928;-75.152;2023-09-30T14:15:07;102066.06;;;23.82;56.04
56632;BME280;42503;39.928;-75.152;2023-09-30T14:25:09;102091.81;;;23.84;55.95
56632;BME280;42503;39.928;-75.152;2023-09-30T14:35:10;102109.44;;;23.84;55.99
56632;BME280;42503;39.928;-75.152;2023-09-30T14:45:12;102118.09;;;23.83;56.10
56632;BME280;42503;39.928;-75.152;2023-09-30T14:55:16;102117.25;;;23.82;56.13
56632;BME280;42503;39.928;-75.152;2023-09-30T15:05:17;102097.09;;;23.80;56.14
56632;BME280;42503;39.928;-75.152;2023-09-30T15:15:19;102101.84;;;23.80;56.25
56632;BME280;42503;39.928;-75.152;2023-09-30T15:25:20;102120.59;;;23.84;56.05
56632;BME280;42503;39.928;-75.152;2023-09-30T15:35:21;102124.53;;;23.83;56.13
56632;BME280;42503;39.928;-75.152;2023-09-30T15:45:23;102129.00;;;23.84;55.97
56632;BME280;42503;39.928;-75.152;2023-09-30T15:55:25;102118.94;;;23.83;55.90
56632;BME280;42503;39.928;-75.152;2023-09-30T16:05:27;102117.25;;;23.82;56.10
56632;BME280;42503;39.928;-75.152;2023-09-30T16:15:28;102110.53;;;23.83;56.13
56632;BME280;42503;39.928;-75.152;2023-09-30T16:25:29;102095.75;;;23.83;56.10
56632;BME280;42503;39.928;-75.152;2023-09-30T16:35:33;102080.34;;;23.80;56.02
56632;BME280;42503;39.928;-75.152;2023-09-30T16:45:35;102089.56;;;23.86;56.15
56632;BME280;42503;39.928;-75.152;2023-09-30T16:55:37;102082.03;;;23.87;55.93
56632;BME280;42503;39.928;-75.152;2023-09-30T17:05:42;102075.34;;;23.88;56.08
56632;BME280;42503;39.928;-75.152;2023-09-30T17:15:43;102061.38;;;23.88;56.04
56632;BME280;42503;39.928;-75.152;2023-09-30T17:25:48;102050.19;;;23.88;56.08
56632;BME280;42503;39.928;-75.152;2023-09-30T17:35:49;102036.22;;;23.88;55.81
56632;BME280;42503;39.928;-75.152;2023-09-30T17:45:50;102019.69;;;23.86;56.13
56632;BME280;42503;39.928;-75.152;2023-09-30T17:55:52;102004.34;;;23.89;55.96
56632;BME280;42503;39.928;-75.152;2023-09-30T18:05:53;102007.13;;;23.89;56.16
56632;BME280;42503;39.928;-75.152;2023-09-30T18:16:02;102005.19;;;23.89;56.17
56632;BME280;42503;39.928;-75.152;2023-09-30T18:26:04;101991.75;;;23.91;56.09
56632;BME280;42503;39.928;-75.152;2023-09-30T18:36:08;101913.63;;;23.44;56.29
56632;BME280;42503;39.928;-75.152;2023-09-30T18:46:11;102013.28;;;23.91;56.27
56632;BME280;42503;39.928;-75.152;2023-09-30T18:56:19;101987.88;;;23.92;56.04
56632;BME280;42503;39.928;-75.152;2023-09-30T19:06:21;101986.44;;;23.95;55.81
56632;BME280;42503;39.928;-75.152;2023-09-30T19:16:23;101984.78;;;23.99;55.89
56632;BME280;42503;39.928;-75.152;2023-09-30T19:26:25;101984.78;;;23.99;55.85
56632;BME280;42503;39.928;-75.152;2023-09-30T19:36:26;102003.53;;;23.98;55.78
56632;BME280;42503;39.928;-75.152;2023-09-30T19:46:32;101982.81;;;23.94;55.80
56632;BME280;42503;39.928;-75.152;2023-09-30T19:56:33;102001.56;;;24.04;55.68
56632;BME280;42503;39.928;-75.152;2023-09-30T20:06:35;102010.53;;;24.06;55.52
56632;BME280;42503;39.928;-75.152;2023-09-30T20:16:37;102015.00;;;24.07;55.54
56632;BME280;42503;39.928;-75.152;2023-09-30T20:26:42;102045.75;;;24.07;55.47
56632;BME280;42503;39.928;-75.152;2023-09-30T20:36:43;102053.03;;;24.08;55.39
56632;BME280;42503;39.928;-75.152;2023-09-30T20:46:45;102054.69;;;24.09;55.54
56632;BME280;42503;39.928;-75.152;2023-09-30T20:56:48;102049.13;;;24.09;55.51
56632;BME280;42503;39.928;-75.152;2023-09-30T21:06:52;102053.63;;;24.10;55.37
56632;BME280;42503;39.928;-75.152;2023-09-30T21:16:54;102044.09;;;24.06;55.24
56632;BME280;42503;39.928;-75.152;2023-09-30T21:26:56;102047.44;;;24.08;55.19
56632;BME280;42503;39.928;-75.152;2023-09-30T21:37:00;102058.63;;;24.08;55.27
56632;BME280;42503;39.928;-75.152;2023-09-30T21:47:01;102058.63;;;24.08;55.15
56632;BME280;42503;39.928;-75.152;2023-09-30T21:57:03;102060.88;;;24.06;55.13
56632;BME280;42503;39.928;-75.152;2023-09-30T22:07:07;102073.44;;;24.03;55.29
56632;BME280;42503;39.928;-75.152;2023-09-30T22:17:09;102090.50;;;24.07;55.27
56632;BME280;42503;39.928;-75.152;2023-09-30T22:27:10;102088.00;;;24.05;55.21
56632;BME280;42503;39.928;-75.152;2023-09-30T22:37:12;102098.31;;;24.05;55.36
56632;BME280;42503;39.928;-75.152;2023-09-30T22:47:13;102097.75;;;24.03;55.14
56632;BME280;42503;39.928;-75.152;2023-09-30T22:57:14;102107.81;;;24.04;55.14
56632;BME280;42503;39.928;-75.152;2023-09-30T23:07:16;102106.97;;;24.03;55.25
56632;BME280;42503;39.928;-75.152;2023-09-30T23:17:20;102104.19;;;24.03;55.20
56632;BME280;42503;39.928;-75.152;2023-09-30T23:27:22;102105.03;;;24.04;55.19
56632;BME280;42503;39.928;-75.152;2023-09-30T23:37:23;102087.69;;;24.02;55.08
56632;BME280;42503;39.928;-75.152;2023-09-30T23:47:26;102082.09;;;24.02;54.93
56632;BME280;42503;39.928;-75.152;2023-09-30T23:57:27;102090.50;;;24.02;55.15
